CheckWX is a tool to help pilots better visualize weather data.  It is not intended as a substitute for an official pre-flight weather briefing.

07:12:54 UTC

LGRP TAF
Diagoras Airport
Rodes Island, Greece
TAF LGRP 170500Z 1706/1806 24010KT 9999 FEW025 PROB40 TEMPO 1709/1715 5000 SHRA FEW018CB BKN020

Jun-17@
06:00 UTC

Jun-17 @ 06:00 UTC

Jun-18@
06:00 UTC

Jun-18 @ 06:00 UTC

TAF LGRP 170500Z 1706/1806 24010KT 9999 FEW025
Wind
  • 240° at 10 KTS
Cloud Levels
  • Few at 2,500' AGL

Jun-17@
09:00 UTC

Jun-17 @ 09:00 UTC

Jun-17@
15:00 UTC

Jun-17 @ 15:00 UTC

PROB40 TEMPO 1709/1715 5000 SHRA FEW018CB BKN020

Temporary - 40% Likelihood

Temporary - 40% Likelihood during this time.

Conditions
Rain
Cloud Levels
  • Few at 1,800' AGL
  • Broken at 2,000' AGL